sensor_id;sensor_type;location;lat;lon;timestamp;temperature;humidity
21807;DHT22;11065;50.786;7.840;2024-01-30T00:00:57;6.50;49.10
21807;DHT22;11065;50.786;7.840;2024-01-30T00:03:25;6.50;49.20
21807;DHT22;11065;50.786;7.840;2024-01-30T00:05:53;6.50;49.20
21807;DHT22;11065;50.786;7.840;2024-01-30T00:08:25;6.40;49.20
21807;DHT22;11065;50.786;7.840;2024-01-30T00:10:53;6.40;49.20
21807;DHT22;11065;50.786;7.840;2024-01-30T00:13:21;6.40;49.20
21807;DHT22;11065;50.786;7.840;2024-01-30T00:15:50;6.40;49.30
21807;DHT22;11065;50.786;7.840;2024-01-30T00:18:19;6.40;49.30
21807;DHT22;11065;50.786;7.840;2024-01-30T00:20:48;6.30;49.30
21807;DHT22;11065;50.786;7.840;2024-01-30T00:23:16;6.30;49.30
21807;DHT22;11065;50.786;7.840;2024-01-30T00:25:44;6.30;49.40
21807;DHT22;11065;50.786;7.840;2024-01-30T00:28:12;6.30;49.40
21807;DHT22;11065;50.786;7.840;2024-01-30T00:30:40;6.20;49.30
21807;DHT22;11065;50.786;7.840;2024-01-30T00:33:08;6.20;49.30
21807;DHT22;11065;50.786;7.840;2024-01-30T00:35:37;6.20;49.40
21807;DHT22;11065;50.786;7.840;2024-01-30T00:38:05;6.20;49.40
21807;DHT22;11065;50.786;7.840;2024-01-30T00:40:34;6.20;49.40
21807;DHT22;11065;50.786;7.840;2024-01-30T00:43:02;6.10;49.30
21807;DHT22;11065;50.786;7.840;2024-01-30T00:45:30;6.10;49.30
21807;DHT22;11065;50.786;7.840;2024-01-30T00:47:58;6.10;49.40
21807;DHT22;11065;50.786;7.840;2024-01-30T00:50:26;6.10;49.40
21807;DHT22;11065;50.786;7.840;2024-01-30T00:52:56;6.10;49.50
21807;DHT22;11065;50.786;7.840;2024-01-30T00:55:24;6.00;49.50
21807;DHT22;11065;50.786;7.840;2024-01-30T00:57:52;6.10;49.60
21807;DHT22;11065;50.786;7.840;2024-01-30T01:00:20;6.00;49.60
21807;DHT22;11065;50.786;7.840;2024-01-30T01:02:48;6.00;49.60
21807;DHT22;11065;50.786;7.840;2024-01-30T01:05:16;6.00;49.60
21807;DHT22;11065;50.786;7.840;2024-01-30T01:07:45;6.00;49.60
21807;DHT22;11065;50.786;7.840;2024-01-30T01:10:16;6.00;49.60
21807;DHT22;11065;50.786;7.840;2024-01-30T01:12:45;6.00;49.70
21807;DHT22;11065;50.786;7.840;2024-01-30T01:15:13;5.90;50.10
21807;DHT22;11065;50.786;7.840;2024-01-30T01:17:41;5.90;49.60
21807;DHT22;11065;50.786;7.840;2024-01-30T01:20:09;5.90;49.60
21807;DHT22;11065;50.786;7.840;2024-01-30T01:22:37;5.90;49.60
21807;DHT22;11065;50.786;7.840;2024-01-30T01:25:06;5.80;49.60
21807;DHT22;11065;50.786;7.840;2024-01-30T01:27:36;5.80;49.60
21807;DHT22;11065;50.786;7.840;2024-01-30T01:30:09;5.80;49.60
21807;DHT22;11065;50.786;7.840;2024-01-30T01:32:38;5.80;49.70
21807;DHT22;11065;50.786;7.840;2024-01-30T01:35:12;5.80;49.60
21807;DHT22;11065;50.786;7.840;2024-01-30T01:37:40;5.80;49.70
21807;DHT22;11065;50.786;7.840;2024-01-30T01:40:08;5.70;49.60
21807;DHT22;11065;50.786;7.840;2024-01-30T01:42:38;5.70;49.70
21807;DHT22;11065;50.786;7.840;2024-01-30T01:45:07;5.70;49.70
21807;DHT22;11065;50.786;7.840;2024-01-30T01:47:35;5.70;49.70
21807;DHT22;11065;50.786;7.840;2024-01-30T01:50:04;5.70;49.70
21807;DHT22;11065;50.786;7.840;2024-01-30T01:52:33;5.70;49.80
21807;DHT22;11065;50.786;7.840;2024-01-30T01:55:01;5.60;49.70
21807;DHT22;11065;50.786;7.840;2024-01-30T01:57:30;5.60;49.80
21807;DHT22;11065;50.786;7.840;2024-01-30T02:00:01;5.60;49.80
21807;DHT22;11065;50.786;7.840;2024-01-30T02:02:35;5.60;49.80
21807;DHT22;11065;50.786;7.840;2024-01-30T02:05:05;5.60;49.90
21807;DHT22;11065;50.786;7.840;2024-01-30T02:07:33;5.60;49.90
21807;DHT22;11065;50.786;7.840;2024-01-30T02:10:01;5.60;49.90
21807;DHT22;11065;50.786;7.840;2024-01-30T02:12:31;5.50;49.90
21807;DHT22;11065;50.786;7.840;2024-01-30T02:15:00;5.50;49.90
21807;DHT22;11065;50.786;7.840;2024-01-30T02:17:30;5.50;49.90
21807;DHT22;11065;50.786;7.840;2024-01-30T02:19:58;5.50;49.90
21807;DHT22;11065;50.786;7.840;2024-01-30T02:22:28;5.50;49.90
21807;DHT22;11065;50.786;7.840;2024-01-30T02:24:56;5.50;50.00
21807;DHT22;11065;50.786;7.840;2024-01-30T02:27:24;5.40;49.90
21807;DHT22;11065;50.786;7.840;2024-01-30T02:29:52;5.50;50.00
21807;DHT22;11065;50.786;7.840;2024-01-30T02:32:20;5.40;50.00
21807;DHT22;11065;50.786;7.840;2024-01-30T02:34:48;5.40;50.00
21807;DHT22;11065;50.786;7.840;2024-01-30T02:37:16;5.40;50.00
21807;DHT22;11065;50.786;7.840;2024-01-30T02:39:46;5.40;50.00
21807;DHT22;11065;50.786;7.840;2024-01-30T02:42:14;5.40;50.10
21807;DHT22;11065;50.786;7.840;2024-01-30T02:44:42;5.30;50.10
21807;DHT22;11065;50.786;7.840;2024-01-30T02:47:10;5.30;50.10
21807;DHT22;11065;50.786;7.840;2024-01-30T02:49:38;5.30;50.10
21807;DHT22;11065;50.786;7.840;2024-01-30T02:52:06;5.30;50.20
21807;DHT22;11065;50.786;7.840;2024-01-30T02:54:34;5.30;50.10
21807;DHT22;11065;50.786;7.840;2024-01-30T02:57:03;5.30;50.10
21807;DHT22;11065;50.786;7.840;2024-01-30T02:59:31;5.30;50.10
21807;DHT22;11065;50.786;7.840;2024-01-30T03:02:02;5.20;50.00
21807;DHT22;11065;50.786;7.840;2024-01-30T03:04:30;5.20;50.00
21807;DHT22;11065;50.786;7.840;2024-01-30T03:06:58;5.20;50.10
21807;DHT22;11065;50.786;7.840;2024-01-30T03:09:26;5.20;50.10
21807;DHT22;11065;50.786;7.840;2024-01-30T03:11:54;5.20;50.10
21807;DHT22;11065;50.786;7.840;2024-01-30T03:14:23;5.20;50.10
21807;DHT22;11065;50.786;7.840;2024-01-30T03:16:51;5.20;50.10
21807;DHT22;11065;50.786;7.840;2024-01-30T03:19:19;5.10;50.20
21807;DHT22;11065;50.786;7.840;2024-01-30T03:21:47;5.10;50.10
21807;DHT22;11065;50.786;7.840;2024-01-30T03:24:15;5.10;50.20
21807;DHT22;11065;50.786;7.840;2024-01-30T03:26:43;5.10;50.30
21807;DHT22;11065;50.786;7.840;2024-01-30T03:29:11;5.10;50.30
21807;DHT22;11065;50.786;7.840;2024-01-30T03:31:41;5.10;50.30
21807;DHT22;11065;50.786;7.840;2024-01-30T03:34:08;5.00;50.40
21807;DHT22;11065;50.786;7.840;2024-01-30T03:36:36;5.00;50.40
21807;DHT22;11065;50.786;7.840;2024-01-30T03:39:04;5.00;50.40
21807;DHT22;11065;50.786;7.840;2024-01-30T03:41:32;5.00;50.40
21807;DHT22;11065;50.786;7.840;2024-01-30T03:44:00;5.00;50.40
21807;DHT22;11065;50.786;7.840;2024-01-30T03:46:28;5.00;50.40
21807;DHT22;11065;50.786;7.840;2024-01-30T03:48:58;5.00;50.40
21807;DHT22;11065;50.786;7.840;2024-01-30T03:51:25;5.00;50.50
21807;DHT22;11065;50.786;7.840;2024-01-30T03:53:53;5.00;50.60
21807;DHT22;11065;50.786;7.840;2024-01-30T03:56:21;4.90;50.50
21807;DHT22;11065;50.786;7.840;2024-01-30T03:58:49;5.00;50.60
21807;DHT22;11065;50.786;7.840;2024-01-30T04:01:17;5.00;50.60
21807;DHT22;11065;50.786;7.840;2024-01-30T04:03:45;5.00;50.60
21807;DHT22;11065;50.786;7.840;2024-01-30T04:06:15;4.90;50.50
21807;DHT22;11065;50.786;7.840;2024-01-30T04:08:43;4.90;50.50
21807;DHT22;11065;50.786;7.840;2024-01-30T04:11:11;4.90;50.50
21807;DHT22;11065;50.786;7.840;2024-01-30T04:13:39;4.90;50.50
21807;DHT22;11065;50.786;7.840;2024-01-30T04:16:07;4.90;50.50
21807;DHT22;11065;50.786;7.840;2024-01-30T04:18:35;4.90;50.50
21807;DHT22;11065;50.786;7.840;2024-01-30T04:21:03;4.90;50.50
21807;DHT22;11065;50.786;7.840;2024-01-30T04:23:32;4.80;50.50
21807;DHT22;11065;50.786;7.840;2024-01-30T04:26:00;4.80;50.50
21807;DHT22;11065;50.786;7.840;2024-01-30T04:28:28;4.80;50.50
21807;DHT22;11065;50.786;7.840;2024-01-30T04:30:56;4.80;50.50
21807;DHT22;11065;50.786;7.840;2024-01-30T04:33:24;4.80;50.60
21807;DHT22;11065;50.786;7.840;2024-01-30T04:35:52;4.80;50.60
21807;DHT22;11065;50.786;7.840;2024-01-30T04:38:20;4.80;50.60
21807;DHT22;11065;50.786;7.840;2024-01-30T04:40:49;4.80;50.60
21807;DHT22;11065;50.786;7.840;2024-01-30T04:43:17;4.80;50.60
21807;DHT22;11065;50.786;7.840;2024-01-30T04:45:45;4.80;50.60
21807;DHT22;11065;50.786;7.840;2024-01-30T04:48:13;4.80;50.70
21807;DHT22;11065;50.786;7.840;2024-01-30T04:50:41;4.70;50.60
21807;DHT22;11065;50.786;7.840;2024-01-30T04:53:09;4.70;50.70
21807;DHT22;11065;50.786;7.840;2024-01-30T04:55:37;4.70;50.70
21807;DHT22;11065;50.786;7.840;2024-01-30T04:58:06;4.70;50.80
21807;DHT22;11065;50.786;7.840;2024-01-30T05:00:35;4.70;50.80
21807;DHT22;11065;50.786;7.840;2024-01-30T05:03:03;4.70;50.70
21807;DHT22;11065;50.786;7.840;2024-01-30T05:05:31;4.70;50.70
21807;DHT22;11065;50.786;7.840;2024-01-30T05:07:59;4.70;50.70
21807;DHT22;11065;50.786;7.840;2024-01-30T05:10:27;4.70;50.70
21807;DHT22;11065;50.786;7.840;2024-01-30T05:12:56;4.70;50.70
21807;DHT22;11065;50.786;7.840;2024-01-30T05:15:25;4.70;50.70
21807;DHT22;11065;50.786;7.840;2024-01-30T05:17:53;4.60;50.70
21807;DHT22;11065;50.786;7.840;2024-01-30T05:20:21;4.60;50.80
21807;DHT22;11065;50.786;7.840;2024-01-30T05:22:48;4.60;50.80
21807;DHT22;11065;50.786;7.840;2024-01-30T05:25:16;4.60;50.80
21807;DHT22;11065;50.786;7.840;2024-01-30T05:27:44;4.60;50.80
21807;DHT22;11065;50.786;7.840;2024-01-30T05:30:13;4.60;50.80
21807;DHT22;11065;50.786;7.840;2024-01-30T05:32:43;4.50;50.80
21807;DHT22;11065;50.786;7.840;2024-01-30T05:35:11;4.50;50.80
21807;DHT22;11065;50.786;7.840;2024-01-30T05:37:39;4.50;50.80
21807;DHT22;11065;50.786;7.840;2024-01-30T05:40:07;4.50;50.80
21807;DHT22;11065;50.786;7.840;2024-01-30T05:42:36;4.50;50.80
21807;DHT22;11065;50.786;7.840;2024-01-30T05:45:05;4.50;50.80
21807;DHT22;11065;50.786;7.840;2024-01-30T05:47:33;4.50;50.80
21807;DHT22;11065;50.786;7.840;2024-01-30T05:50:03;4.50;50.90
21807;DHT22;11065;50.786;7.840;2024-01-30T05:52:31;4.50;50.80
21807;DHT22;11065;50.786;7.840;2024-01-30T05:54:59;4.50;50.90
21807;DHT22;11065;50.786;7.840;2024-01-30T05:57:29;4.40;50.80
21807;DHT22;11065;50.786;7.840;2024-01-30T05:59:57;4.40;50.80
21807;DHT22;11065;50.786;7.840;2024-01-30T06:02:25;4.40;50.90
21807;DHT22;11065;50.786;7.840;2024-01-30T06:04:53;4.40;50.90
21807;DHT22;11065;50.786;7.840;2024-01-30T06:07:22;4.40;51.00
21807;DHT22;11065;50.786;7.840;2024-01-30T06:09:51;4.40;51.00
21807;DHT22;11065;50.786;7.840;2024-01-30T06:12:19;4.30;51.00
21807;DHT22;11065;50.786;7.840;2024-01-30T06:14:47;4.30;51.00
21807;DHT22;11065;50.786;7.840;2024-01-30T06:17:15;4.30;51.00
21807;DHT22;11065;50.786;7.840;2024-01-30T06:19:43;4.30;51.00
21807;DHT22;11065;50.786;7.840;2024-01-30T06:22:11;4.30;51.10
21807;DHT22;11065;50.786;7.840;2024-01-30T06:24:40;4.30;51.10
21807;DHT22;11065;50.786;7.840;2024-01-30T06:27:08;4.30;51.10
21807;DHT22;11065;50.786;7.840;2024-01-30T06:29:36;4.30;51.10
21807;DHT22;11065;50.786;7.840;2024-01-30T06:32:05;4.30;51.10
21807;DHT22;11065;50.786;7.840;2024-01-30T06:34:33;4.30;51.10
21807;DHT22;11065;50.786;7.840;2024-01-30T06:37:01;4.30;51.10
21807;DHT22;11065;50.786;7.840;2024-01-30T06:39:29;4.20;51.00
21807;DHT22;11065;50.786;7.840;2024-01-30T06:41:58;4.20;51.10
21807;DHT22;11065;50.786;7.840;2024-01-30T06:44:26;4.20;51.20
21807;DHT22;11065;50.786;7.840;2024-01-30T06:46:58;4.20;51.20
21807;DHT22;11065;50.786;7.840;2024-01-30T06:49:26;4.20;51.20
21807;DHT22;11065;50.786;7.840;2024-01-30T06:51:54;4.20;51.20
21807;DHT22;11065;50.786;7.840;2024-01-30T06:54:22;4.30;51.30
21807;DHT22;11065;50.786;7.840;2024-01-30T06:56:50;4.20;51.20
21807;DHT22;11065;50.786;7.840;2024-01-30T06:59:19;4.20;51.20
21807;DHT22;11065;50.786;7.840;2024-01-30T07:01:47;4.30;51.30
21807;DHT22;11065;50.786;7.840;2024-01-30T07:04:15;4.20;51.20
21807;DHT22;11065;50.786;7.840;2024-01-30T07:06:45;4.20;51.30
21807;DHT22;11065;50.786;7.840;2024-01-30T07:09:13;4.20;51.30
21807;DHT22;11065;50.786;7.840;2024-01-30T07:11:45;4.20;51.30
21807;DHT22;11065;50.786;7.840;2024-01-30T07:14:13;4.20;51.40
21807;DHT22;11065;50.786;7.840;2024-01-30T07:16:42;4.20;51.40
21807;DHT22;11065;50.786;7.840;2024-01-30T07:19:10;4.30;51.50
21807;DHT22;11065;50.786;7.840;2024-01-30T07:21:38;4.30;51.90
21807;DHT22;11065;50.786;7.840;2024-01-30T07:24:07;4.30;51.50
21807;DHT22;11065;50.786;7.840;2024-01-30T07:26:35;4.30;51.50
21807;DHT22;11065;50.786;7.840;2024-01-30T07:29:03;4.30;51.50
21807;DHT22;11065;50.786;7.840;2024-01-30T07:31:31;4.30;51.50
21807;DHT22;11065;50.786;7.840;2024-01-30T07:34:01;4.30;51.50
21807;DHT22;11065;50.786;7.840;2024-01-30T07:36:30;4.30;51.60
21807;DHT22;11065;50.786;7.840;2024-01-30T07:38:58;4.40;51.60
21807;DHT22;11065;50.786;7.840;2024-01-30T07:41:26;4.40;51.70
21807;DHT22;11065;50.786;7.840;2024-01-30T07:43:54;4.40;51.80
21807;DHT22;11065;50.786;7.840;2024-01-30T07:46:22;4.40;51.80
21807;DHT22;11065;50.786;7.840;2024-01-30T07:48:53;4.50;51.80
21807;DHT22;11065;50.786;7.840;2024-01-30T07:51:24;4.50;51.80
21807;DHT22;11065;50.786;7.840;2024-01-30T07:53:52;4.60;51.90
21807;DHT22;11065;50.786;7.840;2024-01-30T07:56:19;4.60;51.90
21807;DHT22;11065;50.786;7.840;2024-01-30T07:58:47;4.60;51.80
21807;DHT22;11065;50.786;7.840;2024-01-30T08:01:15;4.70;51.90
21807;DHT22;11065;50.786;7.840;2024-01-30T08:03:43;4.70;51.90
21807;DHT22;11065;50.786;7.840;2024-01-30T08:06:11;4.80;51.90
21807;DHT22;11065;50.786;7.840;2024-01-30T08:08:41;4.80;51.90
21807;DHT22;11065;50.786;7.840;2024-01-30T08:11:09;4.80;51.90
21807;DHT22;11065;50.786;7.840;2024-01-30T08:13:37;4.90;52.00
21807;DHT22;11065;50.786;7.840;2024-01-30T08:16:05;4.90;52.00
21807;DHT22;11065;50.786;7.840;2024-01-30T08:18:33;5.00;52.00
21807;DHT22;11065;50.786;7.840;2024-01-30T08:21:01;5.00;52.00
21807;DHT22;11065;50.786;7.840;2024-01-30T08:23:29;5.10;52.00
21807;DHT22;11065;50.786;7.840;2024-01-30T08:25:58;5.10;52.00
21807;DHT22;11065;50.786;7.840;2024-01-30T08:28:26;5.20;52.00
21807;DHT22;11065;50.786;7.840;2024-01-30T08:30:54;5.20;52.00
21807;DHT22;11065;50.786;7.840;2024-01-30T08:33:22;5.30;52.10
21807;DHT22;11065;50.786;7.840;2024-01-30T08:35:50;5.30;52.00
21807;DHT22;11065;50.786;7.840;2024-01-30T08:38:19;5.40;52.10
21807;DHT22;11065;50.786;7.840;2024-01-30T08:40:47;5.40;52.10
21807;DHT22;11065;50.786;7.840;2024-01-30T08:43:16;5.50;52.10
21807;DHT22;11065;50.786;7.840;2024-01-30T08:45:44;5.50;52.20
21807;DHT22;11065;50.786;7.840;2024-01-30T08:48:12;5.60;52.10
21807;DHT22;11065;50.786;7.840;2024-01-30T08:50:40;5.70;52.10
21807;DHT22;11065;50.786;7.840;2024-01-30T08:53:08;5.80;52.10
21807;DHT22;11065;50.786;7.840;2024-01-30T08:55:36;5.80;52.10
21807;DHT22;11065;50.786;7.840;2024-01-30T08:58:05;5.80;52.00
21807;DHT22;11065;50.786;7.840;2024-01-30T09:00:35;5.90;52.00
21807;DHT22;11065;50.786;7.840;2024-01-30T09:03:03;5.90;52.00
21807;DHT22;11065;50.786;7.840;2024-01-30T09:05:31;6.00;52.10
21807;DHT22;11065;50.786;7.840;2024-01-30T09:07:59;6.00;52.00
21807;DHT22;11065;50.786;7.840;2024-01-30T09:10:27;6.10;52.10
21807;DHT22;11065;50.786;7.840;2024-01-30T09:12:55;6.10;52.00
21807;DHT22;11065;50.786;7.840;2024-01-30T09:15:23;6.20;52.10
21807;DHT22;11065;50.786;7.840;2024-01-30T09:17:54;6.20;52.00
21807;DHT22;11065;50.786;7.840;2024-01-30T09:20:22;6.20;52.00
21807;DHT22;11065;50.786;7.840;2024-01-30T09:22:49;6.30;52.00
21807;DHT22;11065;50.786;7.840;2024-01-30T09:25:17;6.30;52.00
21807;DHT22;11065;50.786;7.840;2024-01-30T09:27:46;6.30;52.00
21807;DHT22;11065;50.786;7.840;2024-01-30T09:30:14;6.30;52.00
21807;DHT22;11065;50.786;7.840;2024-01-30T09:32:43;6.40;52.50
21807;DHT22;11065;50.786;7.840;2024-01-30T09:35:12;6.40;52.10
21807;DHT22;11065;50.786;7.840;2024-01-30T09:37:40;6.40;52.10
21807;DHT22;11065;50.786;7.840;2024-01-30T09:40:09;6.50;52.10
21807;DHT22;11065;50.786;7.840;2024-01-30T09:42:37;6.50;52.10
21807;DHT22;11065;50.786;7.840;2024-01-30T09:45:06;6.60;52.10
21807;DHT22;11065;50.786;7.840;2024-01-30T09:47:38;6.60;52.10
21807;DHT22;11065;50.786;7.840;2024-01-30T09:50:08;6.70;52.20
21807;DHT22;11065;50.786;7.840;2024-01-30T09:52:38;6.70;52.20
21807;DHT22;11065;50.786;7.840;2024-01-30T09:55:06;6.80;52.20
21807;DHT22;11065;50.786;7.840;2024-01-30T09:57:35;6.90;52.30
21807;DHT22;11065;50.786;7.840;2024-01-30T10:00:04;7.10;52.70
21807;DHT22;11065;50.786;7.840;2024-01-30T10:02:40;7.30;53.00
21807;DHT22;11065;50.786;7.840;2024-01-30T10:05:09;7.60;53.00
21807;DHT22;11065;50.786;7.840;2024-01-30T10:07:38;7.80;52.80
21807;DHT22;11065;50.786;7.840;2024-01-30T10:10:07;8.00;52.60
21807;DHT22;11065;50.786;7.840;2024-01-30T10:12:35;8.20;52.50
21807;DHT22;11065;50.786;7.840;2024-01-30T10:15:06;8.40;52.50
21807;DHT22;11065;50.786;7.840;2024-01-30T10:17:37;8.60;52.60
21807;DHT22;11065;50.786;7.840;2024-01-30T10:20:06;8.80;52.50
21807;DHT22;11065;50.786;7.840;2024-01-30T10:22:35;9.00;52.30
21807;DHT22;11065;50.786;7.840;2024-01-30T10:25:05;9.10;51.90
21807;DHT22;11065;50.786;7.840;2024-01-30T10:27:34;9.20;51.60
21807;DHT22;11065;50.786;7.840;2024-01-30T10:30:02;9.30;51.40
21807;DHT22;11065;50.786;7.840;2024-01-30T10:32:32;9.40;51.30
21807;DHT22;11065;50.786;7.840;2024-01-30T10:35:00;9.40;51.20
21807;DHT22;11065;50.786;7.840;2024-01-30T10:37:30;9.50;51.00
21807;DHT22;11065;50.786;7.840;2024-01-30T10:40:03;9.40;50.80
21807;DHT22;11065;50.786;7.840;2024-01-30T10:42:35;9.40;50.80
21807;DHT22;11065;50.786;7.840;2024-01-30T10:45:07;9.30;50.70
21807;DHT22;11065;50.786;7.840;2024-01-30T10:47:36;9.30;50.60
21807;DHT22;11065;50.786;7.840;2024-01-30T10:50:05;9.20;50.60
21807;DHT22;11065;50.786;7.840;2024-01-30T10:52:36;9.20;50.70
21807;DHT22;11065;50.786;7.840;2024-01-30T10:55:07;9.20;50.90
21807;DHT22;11065;50.786;7.840;2024-01-30T10:57:35;9.20;51.00
21807;DHT22;11065;50.786;7.840;2024-01-30T11:00:06;9.10;51.00
21807;DHT22;11065;50.786;7.840;2024-01-30T11:02:38;9.20;51.30
21807;DHT22;11065;50.786;7.840;2024-01-30T11:05:08;9.20;51.60
21807;DHT22;11065;50.786;7.840;2024-01-30T11:07:39;9.30;51.70
21807;DHT22;11065;50.786;7.840;2024-01-30T11:10:08;9.50;51.80
21807;DHT22;11065;50.786;7.840;2024-01-30T11:12:40;9.60;51.90
21807;DHT22;11065;50.786;7.840;2024-01-30T11:15:12;9.70;51.90
21807;DHT22;11065;50.786;7.840;2024-01-30T11:17:45;9.80;51.80
21807;DHT22;11065;50.786;7.840;2024-01-30T11:20:15;9.90;51.70
21807;DHT22;11065;50.786;7.840;2024-01-30T11:22:46;10.00;51.60
21807;DHT22;11065;50.786;7.840;2024-01-30T11:25:17;10.10;51.50
21807;DHT22;11065;50.786;7.840;2024-01-30T11:27:46;10.20;51.50
21807;DHT22;11065;50.786;7.840;2024-01-30T11:30:22;10.30;51.60
21807;DHT22;11065;50.786;7.840;2024-01-30T11:33:05;10.40;51.80
21807;DHT22;11065;50.786;7.840;2024-01-30T11:35:36;10.70;52.50
21807;DHT22;11065;50.786;7.840;2024-01-30T11:38:07;11.10;53.30
21807;DHT22;11065;50.786;7.840;2024-01-30T11:40:37;11.70;53.80
21807;DHT22;11065;50.786;7.840;2024-01-30T11:43:07;12.30;53.90
21807;DHT22;11065;50.786;7.840;2024-01-30T11:45:36;12.80;53.40
21807;DHT22;11065;50.786;7.840;2024-01-30T11:48:07;13.30;52.60
21807;DHT22;11065;50.786;7.840;2024-01-30T11:50:38;13.60;51.90
21807;DHT22;11065;50.786;7.840;2024-01-30T11:53:07;13.90;51.40
21807;DHT22;11065;50.786;7.840;2024-01-30T11:55:36;14.10;50.90
21807;DHT22;11065;50.786;7.840;2024-01-30T11:58:04;14.20;50.50
21807;DHT22;11065;50.786;7.840;2024-01-30T12:00:33;14.30;50.10
21807;DHT22;11065;50.786;7.840;2024-01-30T12:03:02;14.40;49.70
21807;DHT22;11065;50.786;7.840;2024-01-30T12:05:32;14.40;49.60
21807;DHT22;11065;50.786;7.840;2024-01-30T12:08:00;14.30;49.40
21807;DHT22;11065;50.786;7.840;2024-01-30T12:10:29;14.30;49.20
21807;DHT22;11065;50.786;7.840;2024-01-30T12:13:00;14.30;48.90
21807;DHT22;11065;50.786;7.840;2024-01-30T12:15:28;14.20;49.00
21807;DHT22;11065;50.786;7.840;2024-01-30T12:18:04;14.20;48.50
21807;DHT22;11065;50.786;7.840;2024-01-30T12:20:33;14.10;48.80
21807;DHT22;11065;50.786;7.840;2024-01-30T12:23:01;14.10;49.10
21807;DHT22;11065;50.786;7.840;2024-01-30T12:25:29;14.10;49.00
21807;DHT22;11065;50.786;7.840;2024-01-30T12:27:59;14.10;49.00
21807;DHT22;11065;50.786;7.840;2024-01-30T12:30:28;14.10;49.00
21807;DHT22;11065;50.786;7.840;2024-01-30T12:32:57;14.10;49.00
21807;DHT22;11065;50.786;7.840;2024-01-30T12:35:25;14.10;49.00
21807;DHT22;11065;50.786;7.840;2024-01-30T12:37:58;14.10;49.00
21807;DHT22;11065;50.786;7.840;2024-01-30T12:40:26;14.00;48.90
21807;DHT22;11065;50.786;7.840;2024-01-30T12:42:55;13.90;48.90
21807;DHT22;11065;50.786;7.840;2024-01-30T12:45:25;13.90;48.90
21807;DHT22;11065;50.786;7.840;2024-01-30T12:47:53;13.80;49.00
21807;DHT22;11065;50.786;7.840;2024-01-30T12:50:22;13.80;49.20
21807;DHT22;11065;50.786;7.840;2024-01-30T12:52:50;13.60;49.20
21807;DHT22;11065;50.786;7.840;2024-01-30T12:55:17;13.60;49.40
21807;DHT22;11065;50.786;7.840;2024-01-30T12:57:45;13.60;49.50
21807;DHT22;11065;50.786;7.840;2024-01-30T13:00:14;13.50;49.60
21807;DHT22;11065;50.786;7.840;2024-01-30T13:02:45;13.50;49.70
21807;DHT22;11065;50.786;7.840;2024-01-30T13:05:13;13.50;49.80
21807;DHT22;11065;50.786;7.840;2024-01-30T13:07:41;13.60;50.00
21807;DHT22;11065;50.786;7.840;2024-01-30T13:10:09;13.60;49.90
21807;DHT22;11065;50.786;7.840;2024-01-30T13:12:37;13.70;49.90
21807;DHT22;11065;50.786;7.840;2024-01-30T13:15:06;13.80;49.90
21807;DHT22;11065;50.786;7.840;2024-01-30T13:17:34;13.70;49.90
21807;DHT22;11065;50.786;7.840;2024-01-30T13:20:07;13.80;50.00
21807;DHT22;11065;50.786;7.840;2024-01-30T13:22:38;13.80;50.10
21807;DHT22;11065;50.786;7.840;2024-01-30T13:25:07;13.80;50.10
21807;DHT22;11065;50.786;7.840;2024-01-30T13:27:35;13.90;50.20
21807;DHT22;11065;50.786;7.840;2024-01-30T13:30:06;13.90;50.20
21807;DHT22;11065;50.786;7.840;2024-01-30T13:32:35;14.00;50.20
21807;DHT22;11065;50.786;7.840;2024-01-30T13:35:05;14.10;50.20
21807;DHT22;11065;50.786;7.840;2024-01-30T13:37:34;14.10;50.00
21807;DHT22;11065;50.786;7.840;2024-01-30T13:40:02;14.10;49.90
21807;DHT22;11065;50.786;7.840;2024-01-30T13:42:37;14.10;49.90
21807;DHT22;11065;50.786;7.840;2024-01-30T13:45:06;14.10;49.90
21807;DHT22;11065;50.786;7.840;2024-01-30T13:47:36;14.10;49.90
21807;DHT22;11065;50.786;7.840;2024-01-30T13:50:06;14.10;50.00
21807;DHT22;11065;50.786;7.840;2024-01-30T13:52:34;14.10;50.10
21807;DHT22;11065;50.786;7.840;2024-01-30T13:55:11;14.10;50.10
21807;DHT22;11065;50.786;7.840;2024-01-30T13:57:39;14.10;50.10
21807;DHT22;11065;50.786;7.840;2024-01-30T14:00:08;14.00;50.10
21807;DHT22;11065;50.786;7.840;2024-01-30T14:02:39;14.00;50.60
21807;DHT22;11065;50.786;7.840;2024-01-30T14:05:09;14.00;50.20
21807;DHT22;11065;50.786;7.840;2024-01-30T14:07:38;13.90;50.30
21807;DHT22;11065;50.786;7.840;2024-01-30T14:10:07;13.90;50.30
21807;DHT22;11065;50.786;7.840;2024-01-30T14:12:39;13.90;50.80
21807;DHT22;11065;50.786;7.840;2024-01-30T14:15:08;13.80;50.40
21807;DHT22;11065;50.786;7.840;2024-01-30T14:17:53;13.80;50.50
21807;DHT22;11065;50.786;7.840;2024-01-30T14:20:22;13.80;50.50
21807;DHT22;11065;50.786;7.840;2024-01-30T14:22:51;13.80;50.50
21807;DHT22;11065;50.786;7.840;2024-01-30T14:25:19;13.80;50.50
21807;DHT22;11065;50.786;7.840;2024-01-30T14:27:47;13.70;50.50
21807;DHT22;11065;50.786;7.840;2024-01-30T14:30:16;13.70;50.60
21807;DHT22;11065;50.786;7.840;2024-01-30T14:32:44;13.70;50.60
21807;DHT22;11065;50.786;7.840;2024-01-30T14:35:13;13.70;50.60
21807;DHT22;11065;50.786;7.840;2024-01-30T14:37:43;13.70;50.70
21807;DHT22;11065;50.786;7.840;2024-01-30T14:40:11;13.70;50.70
21807;DHT22;11065;50.786;7.840;2024-01-30T14:42:39;13.70;50.70
21807;DHT22;11065;50.786;7.840;2024-01-30T14:45:07;13.70;50.70
21807;DHT22;11065;50.786;7.840;2024-01-30T14:47:36;13.70;50.70
21807;DHT22;11065;50.786;7.840;2024-01-30T14:50:05;13.70;50.70
21807;DHT22;11065;50.786;7.840;2024-01-30T14:52:35;13.60;50.70
21807;DHT22;11065;50.786;7.840;2024-01-30T14:55:06;13.60;50.70
21807;DHT22;11065;50.786;7.840;2024-01-30T14:57:34;13.60;50.70
21807;DHT22;11065;50.786;7.840;2024-01-30T15:00:05;13.60;50.80
21807;DHT22;11065;50.786;7.840;2024-01-30T15:02:34;13.60;50.80
21807;DHT22;11065;50.786;7.840;2024-01-30T15:05:03;13.60;50.90
21807;DHT22;11065;50.786;7.840;2024-01-30T15:07:32;13.60;50.90
21807;DHT22;11065;50.786;7.840;2024-01-30T15:10:08;13.60;50.90
21807;DHT22;11065;50.786;7.840;2024-01-30T15:12:37;13.60;50.90
21807;DHT22;11065;50.786;7.840;2024-01-30T15:15:07;13.60;50.90
21807;DHT22;11065;50.786;7.840;2024-01-30T15:17:37;13.60;50.90
21807;DHT22;11065;50.786;7.840;2024-01-30T15:20:06;13.60;51.30
21807;DHT22;11065;50.786;7.840;2024-01-30T15:22:35;13.60;50.90
21807;DHT22;11065;50.786;7.840;2024-01-30T15:25:04;13.60;50.90
21807;DHT22;11065;50.786;7.840;2024-01-30T15:27:33;13.50;50.80
21807;DHT22;11065;50.786;7.840;2024-01-30T15:30:01;13.60;50.90
21807;DHT22;11065;50.786;7.840;2024-01-30T15:32:31;13.60;50.90
21807;DHT22;11065;50.786;7.840;2024-01-30T15:35:00;13.50;50.80
21807;DHT22;11065;50.786;7.840;2024-01-30T15:37:31;13.50;50.90
21807;DHT22;11065;50.786;7.840;2024-01-30T15:40:00;13.60;50.90
21807;DHT22;11065;50.786;7.840;2024-01-30T15:42:29;13.50;50.90
21807;DHT22;11065;50.786;7.840;2024-01-30T15:44:59;13.60;51.00
21807;DHT22;11065;50.786;7.840;2024-01-30T15:47:27;13.50;50.90
21807;DHT22;11065;50.786;7.840;2024-01-30T15:49:55;13.50;50.90
21807;DHT22;11065;50.786;7.840;2024-01-30T15:52:23;13.40;50.90